Time,TemperatureF,DewpointF,PressureIn,WindDirection,WindDirectionDegrees,WindSpeedMPH,WindSpeedGustMPH,Humidity,HourlyPrecipIn,Conditions,Clouds,dailyrainin,SolarRadiationWatts/m^2,SoftwareType,DateUTC
2013-09-15 00:07:00,50.8,50.0,30.13,ESE,113,0.0,1.0,95,0.00,,,0.00,0,weatherlink.com 1.10,2013-09-15 04:07:00,
2013-09-15 00:22:00,50.7,49.0,30.14,ESE,113,0.0,2.0,94,0.00,,,0.00,0,weatherlink.com 1.10,2013-09-15 04:22:00,
2013-09-15 00:37:00,50.5,49.0,30.14,ESE,113,0.0,0.0,94,0.00,,,0.00,0,weatherlink.com 1.10,2013-09-15 04:37:00,
2013-09-15 00:52:00,50.2,49.0,30.14,ESE,113,0.0,0.0,94,0.00,,,0.00,0,weatherlink.com 1.10,2013-09-15 04:52:00,
2013-09-15 01:07:00,49.7,48.0,30.14,ESE,113,0.0,0.0,94,0.00,,,0.00,0,weatherlink.com 1.10,2013-09-15 05:07:00,
2013-09-15 01:22:00,49.4,48.0,30.14,ESE,113,0.0,0.0,95,0.00,,,0.00,0,weatherlink.com 1.10,2013-09-15 05:22:00,
2013-09-15 01:37:00,49.2,48.0,30.14,ESE,113,0.0,0.0,95,0.00,,,0.00,0,weatherlink.com 1.10,2013-09-15 05:37:00,
2013-09-15 01:52:00,49.1,48.0,30.14,ESE,113,0.0,0.0,96,0.00,,,0.00,0,weatherlink.com 1.10,2013-09-15 05:52:00,
2013-09-15 02:07:00,49.0,48.0,30.14,ESE,113,0.0,0.0,96,0.00,,,0.00,0,weatherlink.com 1.10,2013-09-15 06:07:00,
2013-09-15 02:22:00,48.9,48.0,30.15,ESE,113,0.0,0.0,96,0.00,,,0.00,0,weatherlink.com 1.10,2013-09-15 06:22:00,
2013-09-15 02:37:00,48.7,48.0,30.14,ESE,113,0.0,0.0,96,0.00,,,0.00,0,weatherlink.com 1.10,2013-09-15 06:37:00,
2013-09-15 02:52:00,48.7,48.0,30.15,ESE,113,0.0,1.0,96,0.00,,,0.00,0,weatherlink.com 1.10,2013-09-15 06:52:00,
2013-09-15 03:07:00,48.7,48.0,30.15,ESE,113,0.0,0.0,96,0.00,,,0.00,0,weatherlink.com 1.10,2013-09-15 07:07:00,
2013-09-15 03:22:00,48.6,48.0,30.15,ESE,113,0.0,1.0,96,0.00,,,0.00,0,weatherlink.com 1.10,2013-09-15 07:22:00,
2013-09-15 03:37:00,48.5,48.0,30.15,ESE,113,0.0,0.0,96,0.00,,,0.00,0,weatherlink.com 1.10,2013-09-15 07:37:00,
2013-09-15 03:52:00,48.5,48.0,30.16,ESE,113,0.0,0.0,96,0.00,,,0.00,0,weatherlink.com 1.10,2013-09-15 07:52:00,
2013-09-15 04:07:00,48.4,47.0,30.15,ESE,113,0.0,0.0,96,0.00,,,0.00,0,weatherlink.com 1.10,2013-09-15 08:07:00,
2013-09-15 04:22:00,48.2,47.0,30.16,ESE,113,0.0,0.0,95,0.00,,,0.00,0,weatherlink.com 1.10,2013-09-15 08:22:00,
2013-09-15 04:37:00,48.1,47.0,30.16,ESE,113,0.0,0.0,95,0.00,,,0.00,0,weatherlink.com 1.10,2013-09-15 08:37:00,
2013-09-15 04:52:00,48.1,47.0,30.16,ESE,113,0.0,2.0,96,0.00,,,0.00,0,weatherlink.com 1.10,2013-09-15 08:52:00,
2013-09-15 05:07:00,48.3,47.0,30.17,SE,138,0.0,2.0,96,0.00,,,0.00,0,weatherlink.com 1.10,2013-09-15 09:07:00,
2013-09-15 05:22:00,48.3,47.0,30.17,SE,140,0.0,3.0,95,0.00,,,0.00,0,weatherlink.com 1.10,2013-09-15 09:22:00,
2013-09-15 05:37:00,48.3,47.0,30.18,ENE,59,0.0,2.0,94,0.00,,,0.00,0,weatherlink.com 1.10,2013-09-15 09:37:00,
2013-09-15 05:52:00,48.2,47.0,30.18,ESE,120,0.0,1.0,94,0.00,,,0.00,0,weatherlink.com 1.10,2013-09-15 09:52:00,
2013-09-15 06:08:00,48.1,47.0,30.18,SE,128,1.0,2.0,94,0.00,,,0.00,0,weatherlink.com 1.10,2013-09-15 10:08:00,
2013-09-15 06:23:00,47.9,46.0,30.18,SE,128,0.0,1.0,94,0.00,,,0.00,0,weatherlink.com 1.10,2013-09-15 10:23:00,
2013-09-15 06:38:00,47.6,46.0,30.19,SE,128,0.0,1.0,94,0.00,,,0.00,0,weatherlink.com 1.10,2013-09-15 10:38:00,
2013-09-15 06:53:00,47.4,46.0,30.20,SE,128,0.0,0.0,94,0.00,,,0.00,5,weatherlink.com 1.10,2013-09-15 10:53:00,
2013-09-15 07:08:00,47.3,46.0,30.20,SE,128,0.0,1.0,95,0.00,,,0.00,9,weatherlink.com 1.10,2013-09-15 11:08:00,
2013-09-15 07:23:00,47.2,46.0,30.21,SE,128,0.0,1.0,95,0.00,,,0.00,12,weatherlink.com 1.10,2013-09-15 11:23:00,
2013-09-15 07:38:00,47.3,46.0,30.21,SE,128,1.0,1.0,95,0.00,,,0.00,14,weatherlink.com 1.10,2013-09-15 11:38:00,
2013-09-15 07:53:00,47.7,46.0,30.21,SE,128,0.0,1.0,95,0.00,,,0.00,16,weatherlink.com 1.10,2013-09-15 11:53:00,
2013-09-15 08:08:00,48.7,47.0,30.21,South,173,0.0,4.0,95,0.00,,,0.00,19,weatherlink.com 1.10,2013-09-15 12:08:00,
2013-09-15 08:23:00,49.8,48.0,30.21,SSE,158,0.0,2.0,93,0.00,,,0.00,26,weatherlink.com 1.10,2013-09-15 12:23:00,
2013-09-15 08:38:00,52.0,50.0,30.21,SSE,158,0.0,2.0,93,0.00,,,0.00,329,weatherlink.com 1.10,2013-09-15 12:38:00,
2013-09-15 08:53:00,56.1,53.0,30.22,SSW,197,0.0,2.0,89,0.00,,,0.00,330,weatherlink.com 1.10,2013-09-15 12:53:00,
2013-09-15 09:08:00,59.9,54.0,30.23,SW,223,0.0,2.0,81,0.00,,,0.00,445,weatherlink.com 1.10,2013-09-15 13:08:00,
2013-09-15 09:23:00,63.1,54.0,30.23,SSW,194,2.0,3.0,71,0.00,,,0.00,473,weatherlink.com 1.10,2013-09-15 13:23:00,
2013-09-15 09:38:00,64.4,54.0,30.22,SSE,160,0.0,3.0,68,0.00,,,0.00,510,weatherlink.com 1.10,2013-09-15 13:38:00,
2013-09-15 09:53:00,65.5,56.0,30.23,South,184,0.0,2.0,71,0.00,,,0.00,598,weatherlink.com 1.10,2013-09-15 13:53:00,
2013-09-15 10:08:00,67.4,55.0,30.23,SSW,199,0.0,4.0,65,0.00,,,0.00,643,weatherlink.com 1.10,2013-09-15 14:08:00,
2013-09-15 10:23:00,68.1,56.0,30.23,WNW,294,0.0,2.0,65,0.00,,,0.00,698,weatherlink.com 1.10,2013-09-15 14:23:00,
2013-09-15 10:38:00,68.7,52.0,30.23,SSE,153,1.0,5.0,55,0.00,,,0.00,733,weatherlink.com 1.10,2013-09-15 14:38:00,
2013-09-15 10:53:00,69.1,54.0,30.23,SE,126,1.0,2.0,59,0.00,,,0.00,770,weatherlink.com 1.10,2013-09-15 14:53:00,
2013-09-15 11:08:00,69.7,55.0,30.23,SW,214,1.0,3.0,60,0.00,,,0.00,782,weatherlink.com 1.10,2013-09-15 15:08:00,
2013-09-15 11:23:00,69.8,52.0,30.22,WSW,258,4.0,4.0,54,0.00,,,0.00,844,weatherlink.com 1.10,2013-09-15 15:23:00,
2013-09-15 11:39:00,70.6,53.0,30.22,SW,215,3.0,4.0,54,0.00,,,0.00,598,weatherlink.com 1.10,2013-09-15 15:39:00,
2013-09-15 11:54:00,70.5,53.0,30.22,South,190,1.0,6.0,55,0.00,,,0.00,868,weatherlink.com 1.10,2013-09-15 15:54:00,
2013-09-15 12:09:00,70.6,50.0,30.22,SSW,200,2.0,9.0,48,0.00,,,0.00,888,weatherlink.com 1.10,2013-09-15 16:09:00,
2013-09-15 12:24:00,70.7,50.0,30.21,SW,215,5.0,6.0,49,0.00,,,0.00,907,weatherlink.com 1.10,2013-09-15 16:24:00,
2013-09-15 12:39:00,71.5,51.0,30.21,West,276,0.0,4.0,49,0.00,,,0.00,900,weatherlink.com 1.10,2013-09-15 16:39:00,
2013-09-15 12:54:00,71.9,49.0,30.21,SSE,165,1.0,7.0,44,0.00,,,0.00,919,weatherlink.com 1.10,2013-09-15 16:54:00,
2013-09-15 13:09:00,73.4,52.0,30.20,WNW,300,1.0,3.0,47,0.00,,,0.00,740,weatherlink.com 1.10,2013-09-15 17:09:00,
2013-09-15 13:24:00,73.5,56.0,30.20,WSW,245,0.0,3.0,54,0.00,,,0.00,823,weatherlink.com 1.10,2013-09-15 17:24:00,
2013-09-15 13:39:00,73.4,54.0,30.19,NW,306,1.0,2.0,51,0.00,,,0.00,221,weatherlink.com 1.10,2013-09-15 17:39:00,
2013-09-15 13:54:00,72.2,54.0,30.18,SW,220,1.0,3.0,53,0.00,,,0.00,795,weatherlink.com 1.10,2013-09-15 17:54:00,
2013-09-15 14:09:00,72.8,54.0,30.18,ENE,59,1.0,5.0,51,0.00,,,0.00,870,weatherlink.com 1.10,2013-09-15 18:09:00,
2013-09-15 14:24:00,72.4,52.0,30.18,SSW,198,4.0,4.0,49,0.00,,,0.00,589,weatherlink.com 1.10,2013-09-15 18:24:00,
2013-09-15 14:39:00,71.4,51.0,30.17,SSW,213,0.0,8.0,49,0.00,,,0.00,422,weatherlink.com 1.10,2013-09-15 18:39:00,
2013-09-15 14:54:00,71.3,52.0,30.16,West,271,1.0,4.0,50,0.00,,,0.00,461,weatherlink.com 1.10,2013-09-15 18:54:00,
2013-09-15 15:09:00,73.1,54.0,30.16,WNW,289,0.0,4.0,52,0.00,,,0.00,803,weatherlink.com 1.10,2013-09-15 19:09:00,
2013-09-15 15:24:00,74.3,53.0,30.16,WNW,300,2.0,3.0,48,0.00,,,0.00,712,weatherlink.com 1.10,2013-09-15 19:24:00,
2013-09-15 15:39:00,73.5,54.0,30.16,WNW,283,2.0,4.0,51,0.00,,,0.00,202,weatherlink.com 1.10,2013-09-15 19:39:00,
2013-09-15 15:54:00,73.3,57.0,30.16,WSW,240,2.0,7.0,57,0.00,,,0.00,446,weatherlink.com 1.10,2013-09-15 19:54:00,
2013-09-15 16:09:00,72.2,55.0,30.15,WSW,250,1.0,5.0,55,0.00,,,0.00,360,weatherlink.com 1.10,2013-09-15 20:09:00,
2013-09-15 16:24:00,70.7,56.0,30.15,WNW,288,2.0,3.0,61,0.00,,,0.00,369,weatherlink.com 1.10,2013-09-15 20:24:00,
2013-09-15 16:39:00,71.6,56.0,30.15,South,175,0.0,5.0,58,0.00,,,0.00,253,weatherlink.com 1.10,2013-09-15 20:39:00,
2013-09-15 16:54:00,69.4,55.0,30.14,West,272,0.0,6.0,60,0.00,,,0.00,111,weatherlink.com 1.10,2013-09-15 20:54:00,
2013-09-15 17:09:00,68.6,54.0,30.14,SSW,209,1.0,6.0,61,0.00,,,0.00,155,weatherlink.com 1.10,2013-09-15 21:09:00,
2013-09-15 17:24:00,67.6,54.0,30.14,WNW,296,0.0,4.0,63,0.00,,,0.00,88,weatherlink.com 1.10,2013-09-15 21:24:00,
2013-09-15 17:39:00,66.6,54.0,30.14,SSE,166,0.0,8.0,65,0.00,,,0.00,25,weatherlink.com 1.10,2013-09-15 21:39:00,
2013-09-15 17:54:00,64.7,54.0,30.15,WSW,248,0.0,4.0,68,0.00,,,0.00,21,weatherlink.com 1.10,2013-09-15 21:54:00,
2013-09-15 18:09:00,62.9,54.0,30.15,WSW,254,0.0,0.0,73,0.00,,,0.00,16,weatherlink.com 1.10,2013-09-15 22:09:00,
2013-09-15 18:24:00,60.9,54.0,30.14,WSW,254,0.0,0.0,78,0.00,,,0.00,19,weatherlink.com 1.10,2013-09-15 22:24:00,
2013-09-15 18:39:00,59.7,54.0,30.14,WSW,254,0.0,0.0,82,0.00,,,0.00,11,weatherlink.com 1.10,2013-09-15 22:39:00,
2013-09-15 18:54:00,59.2,54.0,30.14,WSW,254,0.0,0.0,83,0.00,,,0.00,0,weatherlink.com 1.10,2013-09-15 22:54:00,
2013-09-15 19:09:00,58.5,54.0,30.14,WSW,254,0.0,0.0,84,0.00,,,0.00,0,weatherlink.com 1.10,2013-09-15 23:09:00,
2013-09-15 19:24:00,57.1,53.0,30.14,WSW,254,0.0,0.0,86,0.00,,,0.00,0,weatherlink.com 1.10,2013-09-15 23:24:00,
2013-09-15 19:39:00,56.1,53.0,30.13,WSW,254,0.0,0.0,88,0.00,,,0.00,0,weatherlink.com 1.10,2013-09-15 23:39:00,
2013-09-15 19:54:00,55.2,52.0,30.14,WSW,254,0.0,0.0,89,0.00,,,0.00,0,weatherlink.com 1.10,2013-09-15 23:54:00,
2013-09-15 20:09:00,54.6,52.0,30.14,WSW,254,0.0,0.0,90,0.00,,,0.00,0,weatherlink.com 1.10,2013-09-16 00:09:00,
2013-09-15 20:24:00,54.1,51.0,30.15,WSW,254,0.0,0.0,90,0.00,,,0.00,0,weatherlink.com 1.10,2013-09-16 00:24:00,
2013-09-15 20:39:00,53.8,52.0,30.15,WSW,254,0.0,0.0,92,0.00,,,0.00,0,weatherlink.com 1.10,2013-09-16 00:39:00,
2013-09-15 20:54:00,53.5,52.0,30.15,WSW,254,0.0,0.0,93,0.00,,,0.00,0,weatherlink.com 1.10,2013-09-16 00:54:00,
2013-09-15 21:09:00,53.3,51.0,30.15,WSW,254,0.0,0.0,93,0.00,,,0.00,0,weatherlink.com 1.10,2013-09-16 01:09:00,
2013-09-15 21:24:00,53.2,52.0,30.14,WSW,254,0.0,0.0,94,0.00,,,0.00,0,weatherlink.com 1.10,2013-09-16 01:24:00,
2013-09-15 21:39:00,52.8,51.0,30.14,WSW,254,0.0,1.0,94,0.00,,,0.00,0,weatherlink.com 1.10,2013-09-16 01:39:00,
2013-09-15 21:54:00,52.7,51.0,30.14,WSW,254,0.0,0.0,94,0.00,,,0.00,0,weatherlink.com 1.10,2013-09-16 01:54:00,
2013-09-15 22:09:00,52.6,51.0,30.14,WSW,254,0.0,0.0,95,0.00,,,0.00,0,weatherlink.com 1.10,2013-09-16 02:09:00,
2013-09-15 22:24:00,52.6,51.0,30.14,WSW,254,0.0,0.0,95,0.00,,,0.00,0,weatherlink.com 1.10,2013-09-16 02:24:00,
2013-09-15 22:39:00,52.6,51.0,30.14,WSW,254,0.0,0.0,95,0.00,,,0.00,0,weatherlink.com 1.10,2013-09-16 02:39:00,
2013-09-15 22:54:00,52.8,52.0,30.14,WSW,254,0.0,0.0,95,0.00,,,0.00,0,weatherlink.com 1.10,2013-09-16 02:54:00,
2013-09-15 23:09:00,52.8,52.0,30.14,WSW,254,0.0,0.0,96,0.00,,,0.00,0,weatherlink.com 1.10,2013-09-16 03:09:00,
2013-09-15 23:24:00,53.0,52.0,30.14,WSW,254,0.0,0.0,96,0.00,,,0.00,0,weatherlink.com 1.10,2013-09-16 03:24:00,
2013-09-15 23:39:00,53.2,52.0,30.14,WSW,254,0.0,0.0,96,0.00,,,0.00,0,weatherlink.com 1.10,2013-09-16 03:39:00,
2013-09-15 23:54:00,53.5,52.0,30.13,WSW,254,0.0,0.0,96,0.00,,,0.00,0,weatherlink.com 1.10,2013-09-16 03:54:00,